Fukushima Airport Sukagawa JP
ICAO: RJSF
IATA:
Category: Medium
Scheduled Services:

Elevation: 1221 ft
TransAlt. 14000 ft.

Airport Communications:
RDO:118.05

RJSF Zoom In..

If you have problems with the map follow the link
https://www.worldairports.se/pages/airport.php?
ICAO=RJSF

Runways:

(A) RW 01 length 8202 ft width 197 ft
ILS 110.50 / hdg 10

(B) RW 19 length 8202 ft width 197 ft
---- / hdg 190

Location; RJSF
Day. 17 / Time. 03.00 Zulu
* QNH: 1004
* Temperature: 11° c. 51.8°f.
* Wind from: 360° Speed 11 kn.
Dewpoint: 03° c.
Visibility: 10 km or more.
Clouds: Few 3000 ft.

RJSF 170300Z 36011KT 9999 FEW030 11/03 Q1004


Wind From 360°
Speed 11 kn.

 
 
jpsmedia.com for Web Design worldairports.se 2018   terms of use